Time;durP1;ratioP1;P1;durP2;ratioP2;P2;SDS_P1;SDS_P2;PMS_P1;PMS_P2;Temp;Humidity;BMP_temperature;BMP_pressure;BME280_temperature;BME280_humidity;BME280_pressure;Samples;Min_cycle;Max_cycle;Signal;HPM_P1;HPM_P2
2021/04/02 05:05:33;;;;;;;25.85;15.88;;;;;;;8.62;100.00;97699.66;1710517;79;21234;-48
2021/04/02 05:08:05;;;;;;;28.47;16.05;;;;;;;8.62;100.00;97693.08;1658043;85;21182;-51
2021/04/02 05:10:35;;;;;;;25.68;15.15;;;;;;;8.61;100.00;97690.69;1667707;84;21157;-51
2021/04/02 05:13:04;;;;;;;26.15;15.28;;;;;;;8.60;100.00;97694.31;1636573;86;21173;-52
2021/04/02 05:15:33;;;;;;;24.60;13.80;;;;;;;8.59;100.00;97701.39;1661751;86;21177;-50
2021/04/02 05:18:04;;;;;;;25.02;13.98;;;;;;;8.61;100.00;97705.13;1675748;84;21220;-51
2021/04/02 05:20:42;;;;;;;24.18;12.82;;;;;;;8.64;100.00;97719.92;1658603;84;21182;-47
2021/04/02 05:23:13;;;;;;;39.60;25.48;;;;;;;8.68;100.00;97704.52;1660203;84;21196;-50
2021/04/02 05:25:42;;;;;;;26.20;14.07;;;;;;;8.74;100.00;97716.25;1661217;85;21134;-52
2021/04/02 05:28:12;;;;;;;23.47;12.98;;;;;;;8.75;100.00;97711.28;1667756;84;21575;-54
2021/04/02 05:30:41;;;;;;;23.77;12.73;;;;;;;8.76;100.00;97708.14;1637629;84;21206;-52
2021/04/02 05:33:11;;;;;;;20.88;12.55;;;;;;;8.76;100.00;97714.70;1668112;84;21182;-53
2021/04/02 05:35:41;;;;;;;23.05;12.07;;;;;;;8.76;100.00;97716.82;1642910;85;21375;-50
2021/04/02 05:38:10;;;;;;;21.73;11.53;;;;;;;8.77;100.00;97714.99;1675461;85;21201;-53
2021/04/02 05:40:42;;;;;;;23.55;13.08;;;;;;;8.81;100.00;97721.92;1672464;85;21323;-57
2021/04/02 05:43:16;;;;;;;24.87;12.68;;;;;;;8.82;100.00;97722.20;1676719;84;21347;-56
2021/04/02 05:45:45;;;;;;;22.22;12.10;;;;;;;8.78;100.00;97727.13;1668962;84;21710;-58
2021/04/02 05:48:16;;;;;;;22.58;12.85;;;;;;;8.75;100.00;97725.73;1645872;86;21217;-57
2021/04/02 05:50:46;;;;;;;21.82;12.80;;;;;;;8.77;100.00;97725.50;1638931;87;21162;-55
2021/04/02 05:53:16;;;;;;;24.43;13.72;;;;;;;8.74;100.00;97738.59;1663252;85;21218;-56
2021/04/02 05:55:47;;;;;;;25.25;14.03;;;;;;;8.69;100.00;97722.69;1663047;85;21151;-57
2021/04/02 05:58:16;;;;;;;23.07;12.98;;;;;;;8.66;100.00;97721.83;1681715;85;21798;-57
2021/04/02 06:00:45;;;;;;;21.02;12.53;;;;;;;8.63;100.00;97720.16;1662549;85;21404;-56
2021/04/02 06:03:17;;;;;;;25.85;13.95;;;;;;;8.60;100.00;97728.46;1681425;85;21364;-57
2021/04/02 06:05:47;;;;;;;;;;;;;;;8.57;100.00;97727.09;1691717;84;21895;-56
2021/04/02 06:08:17;;;;;;;26.77;12.65;;;;;;;8.53;100.00;97754.82;1668346;85;20206;-57
2021/04/02 06:10:47;;;;;;;17.73;9.70;;;;;;;8.44;100.00;97749.59;1685005;85;21182;-56
2021/04/02 06:13:16;;;;;;;17.25;8.73;;;;;;;8.33;100.00;97753.73;1682293;85;21352;-54
2021/04/02 06:15:45;;;;;;;13.30;7.50;;;;;;;8.22;100.00;97743.95;1682073;85;21345;-54
2021/04/02 06:18:15;;;;;;;12.85;6.25;;;;;;;8.12;100.00;97751.53;1663754;85;22361;-52
2021/04/02 06:20:49;;;;;;;11.57;5.70;;;;;;;7.98;100.00;97762.69;1631260;87;21220;-56
2021/04/02 06:23:25;;;;;;;12.13;5.50;;;;;;;7.83;100.00;97751.73;1658009;86;21380;-54
2021/04/02 06:26:02;;;;;;;8.80;5.20;;;;;;;7.68;100.00;97736.31;1666540;85;21181;-53
2021/04/02 06:28:34;;;;;;;9.20;5.22;;;;;;;7.55;100.00;97773.96;1670581;84;21355;-50
2021/04/02 06:31:12;;;;;;;7.20;4.60;;;;;;;7.47;100.00;97773.44;1665901;84;21213;-56
2021/04/02 06:33:53;;;;;;;8.30;3.98;;;;;;;7.41;100.00;97803.43;1644063;84;21181;-52
2021/04/02 06:36:27;;;;;;;6.00;3.98;;;;;;;7.40;100.00;97787.92;1629839;87;21395;-55
2021/04/02 06:39:04;;;;;;;9.80;5.28;;;;;;;7.34;100.00;97777.78;1647906;86;21176;-53
2021/04/02 06:41:36;;;;;;;8.38;4.83;;;;;;;7.31;100.00;97790.49;1657102;86;21213;-53
2021/04/02 06:44:07;;;;;;;;;;;;;;;7.38;100.00;97780.75;1651888;86;21691;-53
2021/04/02 06:46:39;;;;;;;5.92;3.90;;;;;;;7.44;100.00;97785.14;1633834;88;20227;-54
2021/04/02 06:49:14;;;;;;;4.83;3.67;;;;;;;7.49;100.00;97790.55;1654305;85;21376;-54
2021/04/02 06:51:47;;;;;;;8.18;4.72;;;;;;;7.52;100.00;97784.90;1671936;85;21229;-56
2021/04/02 06:54:25;;;;;;;8.73;5.12;;;;;;;7.54;100.00;97784.67;1665420;85;21219;-50
2021/04/02 06:57:06;;;;;;;6.28;3.42;;;;;;;7.59;100.00;97787.47;1641506;85;21361;-52
2021/04/02 06:59:36;;;;;;;16.42;7.03;;;;;;;7.65;100.00;97797.09;1652796;85;21232;-58
2021/04/02 07:02:08;;;;;;;15.03;6.55;;;;;;;7.64;100.00;97797.61;1615818;87;21223;-49
2021/04/02 07:04:47;;;;;;;10.08;4.62;;;;;;;7.65;100.00;97824.64;1630694;85;21238;-51
2021/04/02 07:07:20;;;;;;;9.30;4.28;;;;;;;7.59;100.00;97811.06;1665223;84;21645;-51
2021/04/02 07:09:50;;;;;;;6.33;3.85;;;;;;;7.53;100.00;97795.67;1695098;84;21198;-54
2021/04/02 07:12:21;;;;;;;21.12;10.55;;;;;;;7.49;100.00;97818.60;1677280;84;21222;-51
2021/04/02 07:14:51;;;;;;;8.55;4.37;;;;;;;7.42;100.00;97822.58;1677481;84;21202;-63
2021/04/02 07:17:22;;;;;;;11.40;6.37;;;;;;;7.36;100.00;97820.81;1669637;85;21375;-54
2021/04/02 07:19:53;;;;;;;8.88;5.60;;;;;;;7.30;100.00;97830.84;1668548;85;21646;-52
2021/04/02 07:22:24;;;;;;;7.50;3.67;;;;;;;7.22;100.00;97833.69;1655228;85;21253;-52
2021/04/02 07:24:53;;;;;;;11.85;6.70;;;;;;;7.15;100.00;97825.88;1670693;84;21167;-51
2021/04/02 07:27:22;;;;;;;7.67;3.80;;;;;;;7.21;100.00;97834.71;1671151;85;21222;-54
2021/04/02 07:29:52;;;;;;;5.22;3.02;;;;;;;7.28;100.00;97810.56;1670559;84;21182;-52
2021/04/02 07:32:25;;;;;;;3.47;3.08;;;;;;;7.30;100.00;97853.12;1655894;84;21182;-54
2021/04/02 07:34:56;;;;;;;7.00;4.22;;;;;;;7.26;99.51;97844.86;1654373;84;21155;-50
2021/04/02 07:37:39;;;;;;;10.38;5.15;;;;;;;7.25;100.00;97845.88;1677936;84;21174;-54
2021/04/02 07:40:16;;;;;;;5.50;3.85;;;;;;;7.28;99.07;97856.44;1675512;84;21186;-53
2021/04/02 07:42:54;;;;;;;4.97;3.22;;;;;;;7.27;99.22;97846.97;1671602;84;21231;-49
2021/04/02 07:45:31;;;;;;;5.37;3.80;;;;;;;7.21;100.00;97866.16;1676017;84;21199;-53
2021/04/02 07:48:23;;;;;;;3.42;3.08;;;;;;;7.06;99.89;97855.98;1675568;85;21635;-57
2021/04/02 07:50:56;;;;;;;5.03;3.20;;;;;;;6.93;99.95;97862.86;1668271;84;21243;-49
2021/04/02 07:53:31;;;;;;;12.58;5.65;;;;;;;6.83;98.65;97855.97;1676126;84;21211;-64
2021/04/02 07:56:15;;;;;;;5.70;3.62;;;;;;;6.74;98.76;97880.78;1678101;85;21205;-52
2021/04/02 07:58:52;;;;;;;8.63;4.80;;;;;;;6.66;100.00;97884.95;1674370;84;21643;-53
2021/04/02 08:01:29;;;;;;;3.95;3.30;;;;;;;6.57;99.76;97891.41;1710535;79;21558;-49
2021/04/02 08:04:05;;;;;;;4.28;3.37;;;;;;;6.51;100.00;97889.10;1724404;80;22360;-56
2021/04/02 08:06:37;;;;;;;4.53;3.37;;;;;;;6.56;100.00;97887.18;1699676;83;21145;-55
2021/04/02 08:09:10;;;;;;;3.27;2.95;;;;;;;6.56;100.00;97880.13;1742024;81;21198;-55
2021/04/02 08:11:46;;;;;;;3.02;2.45;;;;;;;6.53;100.00;97885.77;1755215;80;21304;-54
2021/04/02 08:14:16;;;;;;;6.50;2.85;;;;;;;6.44;99.34;97883.59;1760968;80;21557;-56
2021/04/02 08:16:55;;;;;;;3.70;3.00;;;;;;;6.26;99.00;97885.53;1744825;81;21665;-58
2021/04/02 08:19:32;;;;;;;3.90;2.90;;;;;;;6.14;99.94;97878.80;1752690;81;21118;-56
2021/04/02 08:22:05;;;;;;;4.17;2.70;;;;;;;6.10;99.16;97895.91;1686772;83;21148;-58
2021/04/02 08:24:45;;;;;;;5.08;3.42;;;;;;;5.95;99.41;97880.91;1737557;81;21191;-58
2021/04/02 08:27:16;;;;;;;6.17;3.77;;;;;;;5.84;100.00;97905.31;1742696;82;21136;-56
2021/04/02 08:30:01;;;;;;;6.22;3.50;;;;;;;5.82;100.00;97902.61;1701304;83;21153;-58
2021/04/02 08:32:21;;;;;;;8.35;3.58;;;;;;;5.84;99.34;97902.70;1732185;81;21968;-57
2021/04/02 08:34:51;;;;;;;5.30;3.85;;;;;;;5.81;100.00;97908.34;1718885;82;21167;-64
2021/04/02 08:37:21;;;;;;;4.42;3.40;;;;;;;5.77;100.00;97894.05;1728138;82;21135;-55
2021/04/02 08:39:53;;;;;;;4.87;3.70;;;;;;;5.74;99.76;97914.59;1742859;80;21175;-57
2021/04/02 08:42:32;;;;;;;5.45;4.00;;;;;;;5.70;100.00;97915.98;1770528;80;21154;-62
2021/04/02 08:45:07;;;;;;;6.47;4.08;;;;;;;5.62;99.80;97903.91;1768494;80;21190;-57
2021/04/02 08:47:38;;;;;;;7.35;4.33;;;;;;;5.55;100.00;97905.69;1697951;83;21575;-59
2021/04/02 08:50:10;;;;;;;7.92;3.95;;;;;;;5.50;100.00;97923.27;1740161;82;21233;-67
2021/04/02 08:52:38;;;;;;;;;;;;;;;5.43;100.00;97878.02;1765101;80;21143;-56
2021/04/02 08:55:10;;;;;;;8.28;4.00;;;;;;;5.29;100.00;97920.31;1758284;80;20144;-57
2021/04/02 08:57:43;;;;;;;5.45;4.08;;;;;;;5.13;100.00;97910.72;1758125;81;21708;-57
2021/04/02 09:00:14;;;;;;;11.10;5.55;;;;;;;5.02;100.00;97919.41;1746351;81;21170;-53
2021/04/02 09:02:44;;;;;;;10.15;4.90;;;;;;;4.92;100.00;97940.35;1679664;84;21334;-55
2021/04/02 09:05:17;;;;;;;8.75;4.60;;;;;;;4.87;100.00;97930.48;1671906;85;21213;-55
2021/04/02 09:07:48;;;;;;;6.55;4.62;;;;;;;4.82;100.00;97919.00;1660653;85;21539;-56
2021/04/02 09:10:23;;;;;;;9.90;5.00;;;;;;;4.74;100.00;97939.05;1738027;81;21300;-57
2021/04/02 09:12:54;;;;;;;11.73;6.08;;;;;;;4.75;100.00;97941.16;1685792;84;21204;-62
2021/04/02 09:15:33;;;;;;;8.83;5.25;;;;;;;4.78;100.00;97939.49;1722648;82;21140;-60
2021/04/02 09:18:28;;;;;;;12.55;5.35;;;;;;;4.80;100.00;97947.42;1695575;81;21334;-54
2021/04/02 09:20:59;;;;;;;9.28;5.35;;;;;;;4.76;100.00;97912.78;1719127;83;21285;-51
2021/04/02 09:23:30;;;;;;;10.58;5.67;;;;;;;4.59;100.00;97934.95;1730993;83;21186;-50
2021/04/02 09:26:04;;;;;;;12.33;6.20;;;;;;;4.46;100.00;97940.89;1707110;83;21578;-58
2021/04/02 09:28:38;;;;;;;12.45;6.30;;;;;;;4.41;100.00;97933.63;1695394;83;21134;-62
2021/04/02 09:31:27;;;;;;;10.85;5.90;;;;;;;4.41;100.00;97937.55;1704715;82;21158;-56
2021/04/02 09:34:00;;;;;;;13.28;6.50;;;;;;;4.42;100.00;97937.08;1718749;82;21187;-54
2021/04/02 09:36:34;;;;;;;10.07;4.80;;;;;;;4.35;100.00;97937.00;1700122;82;28444;-54
2021/04/02 09:39:16;;;;;;;8.35;4.72;;;;;;;4.44;100.00;97944.20;1693369;83;21212;-56
2021/04/02 09:41:59;;;;;;;11.25;5.80;;;;;;;4.39;100.00;97944.77;1710405;82;21306;-55
2021/04/02 09:44:36;;;;;;;7.85;4.55;;;;;;;4.33;100.00;97953.86;1725507;82;21300;-55
2021/04/02 09:47:08;;;;;;;8.30;4.47;;;;;;;4.26;100.00;97954.61;1723193;82;21179;-56
2021/04/02 09:49:37;;;;;;;8.75;4.58;;;;;;;4.18;100.00;97965.17;1736609;82;21165;-55
2021/04/02 09:52:08;;;;;;;16.80;7.30;;;;;;;4.18;100.00;97957.84;1705712;84;21204;-55
2021/04/02 09:54:38;;;;;;;17.50;8.93;;;;;;;4.18;100.00;97937.78;1706122;84;21192;-57
2021/04/02 09:57:12;;;;;;;13.53;5.80;;;;;;;4.27;100.00;97969.77;1699640;84;21184;-56
2021/04/02 09:59:41;;;;;;;15.00;6.70;;;;;;;4.32;100.00;97940.01;1707579;83;22597;-56
2021/04/02 10:02:11;;;;;;;15.00;4.83;;;;;;;4.39;100.00;97953.90;1708946;83;21194;-62
2021/04/02 10:04:41;;;;;;;9.73;4.83;;;;;;;4.49;100.00;97946.55;1707610;83;21224;-57
2021/04/02 10:07:13;;;;;;;10.90;5.42;;;;;;;4.56;100.00;97941.37;1695757;83;21186;-49
2021/04/02 10:09:43;;;;;;;11.05;4.95;;;;;;;4.56;100.00;97951.81;1716782;83;21157;-54
2021/04/02 10:12:13;;;;;;;9.60;4.50;;;;;;;4.49;100.00;97947.05;1731074;82;21154;-59
2021/04/02 10:14:43;;;;;;;9.03;4.95;;;;;;;4.42;100.00;97948.81;1711798;83;21188;-56
2021/04/02 10:17:15;;;;;;;9.58;4.30;;;;;;;4.39;100.00;97951.80;1713537;83;21738;-55
2021/04/02 10:19:47;;;;;;;11.93;4.97;;;;;;;4.42;100.00;97951.42;1713508;83;21179;-56
2021/04/02 10:22:20;;;;;;;10.23;4.28;;;;;;;4.47;100.00;97925.53;1738680;82;21644;-55
2021/04/02 10:24:49;;;;;;;7.03;4.47;;;;;;;4.46;100.00;97948.22;1730253;82;21316;-54
2021/04/02 10:27:18;;;;;;;7.70;4.05;;;;;;;4.43;100.00;97953.03;1750128;82;21182;-54
2021/04/02 10:29:50;;;;;;;8.65;4.80;;;;;;;4.41;100.00;97937.55;1749390;82;21209;-54
2021/04/02 10:32:19;;;;;;;10.20;4.50;;;;;;;4.41;100.00;97941.96;1748149;82;21592;-60
2021/04/02 10:34:49;;;;;;;9.93;4.47;;;;;;;4.45;100.00;97951.03;1707484;84;21683;-56
2021/04/02 10:37:19;;;;;;;9.78;4.35;;;;;;;4.48;100.00;97930.59;1703408;83;21281;-56
2021/04/02 10:39:49;;;;;;;6.47;3.90;;;;;;;4.54;100.00;97953.81;1712118;82;21183;-57
2021/04/02 10:42:21;;;;;;;5.95;3.70;;;;;;;4.63;99.80;97954.45;1694485;84;21736;-58
2021/04/02 10:44:50;;;;;;;6.17;3.72;;;;;;;4.72;96.60;97972.39;1708480;83;21184;-55
2021/04/02 10:47:20;;;;;;;6.10;3.02;;;;;;;4.77;96.43;97961.38;1706550;84;21584;-55
2021/04/02 10:49:49;;;;;;;5.42;3.47;;;;;;;4.80;94.86;97967.52;1710141;83;21171;-56
2021/04/02 10:52:24;;;;;;;5.05;3.30;;;;;;;4.82;94.99;97976.45;1743373;82;21167;-53
2021/04/02 10:54:54;;;;;;;5.42;3.62;;;;;;;4.82;94.38;97972.53;1699637;84;21155;-54
2021/04/02 10:57:23;;;;;;;4.00;3.35;;;;;;;4.84;94.91;97970.05;1700868;84;21316;-53
2021/04/02 10:59:52;;;;;;;7.40;3.77;;;;;;;4.90;95.04;97971.09;1681128;85;21327;-58
2021/04/02 11:02:22;;;;;;;7.58;3.87;;;;;;;4.93;95.06;97965.47;1679095;85;21599;-60
2021/04/02 11:04:54;;;;;;;9.00;4.28;;;;;;;4.98;94.64;97967.00;1671979;85;21151;-63
2021/04/02 11:07:25;;;;;;;7.40;4.17;;;;;;;5.03;94.93;97973.26;1666846;85;21152;-59
2021/04/02 11:09:54;;;;;;;9.88;4.35;;;;;;;5.15;94.63;97989.69;1663518;85;21667;-59
2021/04/02 11:12:30;;;;;;;4.85;3.35;;;;;;;5.28;92.45;97980.13;1717048;82;21167;-56
2021/04/02 11:15:01;;;;;;;5.22;3.50;;;;;;;5.31;90.61;97980.22;1728451;83;21759;-52
2021/04/02 11:17:31;;;;;;;8.98;4.03;;;;;;;5.25;89.89;97988.34;1711727;82;21129;-57
2021/04/02 11:20:01;;;;;;;5.90;3.60;;;;;;;5.18;91.07;97990.13;1721643;82;21170;-55
2021/04/02 11:22:30;;;;;;;4.40;3.10;;;;;;;5.13;91.56;97978.64;1736353;82;21205;-52
2021/04/02 11:24:59;;;;;;;5.15;2.83;;;;;;;5.05;93.16;97964.75;1709246;82;21298;-49
2021/04/02 11:27:28;;;;;;;5.55;3.00;;;;;;;4.99;94.95;97990.34;1699528;82;21150;-54
2021/04/02 11:29:57;;;;;;;3.27;2.20;;;;;;;4.92;95.79;97988.16;1722761;83;21638;-54
2021/04/02 11:32:26;;;;;;;3.12;2.40;;;;;;;4.86;97.13;97993.36;1725359;83;21174;-50
2021/04/02 11:34:55;;;;;;;4.55;2.80;;;;;;;4.76;96.59;98001.55;1730578;83;21206;-51
2021/04/02 11:37:25;;;;;;;6.78;3.35;;;;;;;4.57;95.59;97997.79;1670244;84;21173;-62
2021/04/02 11:39:55;;;;;;;4.37;3.02;;;;;;;4.39;97.49;97982.60;1690753;85;21178;-57
2021/04/02 11:42:24;;;;;;;4.40;3.25;;;;;;;4.31;97.75;98011.45;1691046;85;21169;-53
2021/04/02 11:44:55;;;;;;;9.95;3.85;;;;;;;4.28;97.65;98009.20;1714965;82;21155;-57
2021/04/02 11:47:25;;;;;;;3.25;2.90;;;;;;;4.31;97.87;97993.19;1731175;83;21123;-57
2021/04/02 11:50:00;;;;;;;5.90;3.40;;;;;;;4.35;96.72;98011.37;1719027;83;21305;-58
2021/04/02 11:52:29;;;;;;;6.20;3.40;;;;;;;4.39;96.59;98017.83;1690313;84;21179;-56
2021/04/02 11:55:06;;;;;;;4.83;3.20;;;;;;;4.47;96.15;98023.41;1682834;84;21166;-55
2021/04/02 11:57:38;;;;;;;4.55;3.05;;;;;;;4.48;95.95;98024.55;1727519;82;21609;-54
2021/04/02 12:00:11;;;;;;;5.40;2.98;;;;;;;4.47;95.65;97998.61;1732754;83;21211;-58
2021/04/02 12:02:40;;;;;;;;;;;;;;;4.47;95.29;98004.66;1677326;85;21189;-56
2021/04/02 12:05:23;;;;;;;8.30;3.85;;;;;;;4.52;97.10;98002.27;1674689;85;20528;-55
2021/04/02 12:07:53;;;;;;;7.45;3.87;;;;;;;4.63;96.03;98013.19;1679689;85;21230;-56
2021/04/02 12:10:23;;;;;;;9.33;4.60;;;;;;;4.71;95.76;98011.25;1723235;82;21593;-55
2021/04/02 12:12:56;;;;;;;7.65;3.50;;;;;;;4.82;96.01;98005.17;1713161;83;21319;-57
2021/04/02 12:15:27;;;;;;;10.13;4.75;;;;;;;4.89;92.38;98012.07;1736690;82;21175;-56
2021/04/02 12:17:56;;;;;;;4.83;3.60;;;;;;;4.90;93.56;98005.84;1752391;82;21626;-60
2021/04/02 12:20:25;;;;;;;10.32;4.28;;;;;;;4.89;90.36;98008.16;1708906;82;21192;-57
2021/04/02 12:22:55;;;;;;;9.48;4.72;;;;;;;4.81;90.17;98027.87;1746733;82;21190;-56
2021/04/02 12:25:24;;;;;;;11.18;5.28;;;;;;;4.76;90.75;98019.33;1745007;82;21284;-58
2021/04/02 12:27:55;;;;;;;10.00;4.95;;;;;;;4.82;89.95;98028.20;1745218;82;21197;-56
2021/04/02 12:30:30;;;;;;;6.28;3.90;;;;;;;4.93;90.17;98015.09;1719586;82;21621;-55
2021/04/02 12:33:06;;;;;;;;;;;;;;;5.06;88.95;98022.52;1695865;82;22242;-55
2021/04/02 12:35:37;;;;;;;3.95;3.30;;;;;;;5.15;87.15;98031.49;1714515;82;20240;-57
2021/04/02 12:38:09;;;;;;;8.70;3.58;;;;;;;5.11;86.95;98033.70;1729162;82;22250;-58
2021/04/02 12:40:38;;;;;;;9.93;4.72;;;;;;;5.07;86.59;98024.63;1724923;82;21154;-59
2021/04/02 12:43:09;;;;;;;10.45;4.67;;;;;;;5.06;86.93;98026.94;1729387;82;21166;-57
2021/04/02 12:45:39;;;;;;;11.10;4.62;;;;;;;5.08;87.20;98036.69;1693205;83;21205;-55
2021/04/02 12:48:10;;;;;;;11.63;4.92;;;;;;;5.12;86.73;98025.36;1715851;82;21155;-58
2021/04/02 12:50:41;;;;;;;11.38;5.22;;;;;;;5.11;87.14;98041.54;1737569;82;21149;-61
2021/04/02 12:53:10;;;;;;;11.68;4.78;;;;;;;5.11;87.02;98023.75;1731809;82;21154;-54
2021/04/02 12:55:41;;;;;;;;;;;;;;;5.10;87.79;98041.20;1724932;81;21323;-55
2021/04/02 12:58:10;;;;;;;8.00;3.50;;;;;;;5.08;86.82;98024.93;1743550;82;20876;-55
